createdAt,value
2023-02-15T00:05:15.012Z,1024.3
2023-02-15T00:11:37.984Z,1024.24
2023-02-15T00:17:58.067Z,1024.12
2023-02-15T00:24:21.006Z,1024.11
2023-02-15T00:30:41.060Z,1024.07
2023-02-15T00:37:04.066Z,1024.03
2023-02-15T00:43:23.983Z,1023.97
2023-02-15T00:49:46.977Z,1023.97
2023-02-15T00:56:07.042Z,1023.97
2023-02-15T01:02:29.979Z,1023.97
2023-02-15T01:08:50.041Z,1023.99
2023-02-15T01:15:13.102Z,1023.95
2023-02-15T01:21:33.024Z,1023.97
2023-02-15T01:27:56.024Z,1023.91
2023-02-15T01:34:16.028Z,1023.87
2023-02-15T01:40:39.034Z,1023.83
2023-02-15T01:46:59.001Z,1023.77
2023-02-15T01:53:22.056Z,1023.72
2023-02-15T01:59:41.990Z,1023.68
2023-02-15T02:06:05.052Z,1023.62
2023-02-15T02:12:25.163Z,1023.62
2023-02-15T02:18:48.009Z,1023.58
2023-02-15T02:25:08.037Z,1023.5
2023-02-15T02:31:31.156Z,1023.39
2023-02-15T02:37:51.042Z,1023.31
2023-02-15T02:44:13.987Z,1023.29
2023-02-15T02:50:34.093Z,1023.25
2023-02-15T02:56:57.056Z,1023.16
2023-02-15T03:03:16.992Z,1023.1
2023-02-15T03:09:40.024Z,1023
2023-02-15T03:16:00.316Z,1022.98
2023-02-15T03:22:23.017Z,1022.92
2023-02-15T03:28:43.046Z,1022.82
2023-02-15T03:35:06.007Z,1022.73
2023-02-15T03:41:25.989Z,1022.69
2023-02-15T03:47:49.009Z,1022.73
2023-02-15T03:54:09.053Z,1022.75
2023-02-15T04:00:32.017Z,1022.73
2023-02-15T04:06:52.158Z,1022.75
2023-02-15T04:29:59.092Z,1022.63
2023-02-15T04:36:22.042Z,1022.65
2023-02-15T04:42:41.984Z,1022.67
2023-02-15T04:49:05.018Z,1022.67
2023-02-15T04:55:24.983Z,1022.65
2023-02-15T05:01:48.045Z,1022.63
2023-02-15T05:08:08.047Z,1022.65
2023-02-15T05:14:31.006Z,1022.65
2023-02-15T05:20:52.138Z,1022.61
2023-02-15T05:27:15.034Z,1022.57
2023-02-15T05:33:34.976Z,1022.53
2023-02-15T05:39:58.004Z,1022.49
2023-02-15T05:46:18.071Z,1022.49
2023-02-15T05:52:41.038Z,1022.51
2023-02-15T05:59:00.986Z,1022.49
2023-02-15T06:05:24.035Z,1022.49
2023-02-15T06:11:44.155Z,1022.55
2023-02-15T06:18:07.022Z,1022.53
2023-02-15T06:24:27.030Z,1022.49
2023-02-15T06:30:50.068Z,1022.51
2023-02-15T06:37:10.044Z,1022.55
2023-02-15T06:43:33.012Z,1022.57
2023-02-15T06:49:53.012Z,1022.57
2023-02-15T06:56:16.003Z,1022.61
2023-02-15T07:02:36.008Z,1022.59
2023-02-15T07:08:58.988Z,1022.57
2023-02-15T07:15:19.021Z,1022.59
2023-02-15T07:21:42.032Z,1022.55
2023-02-15T07:28:02.048Z,1022.47
2023-02-15T07:34:24.974Z,1022.45
2023-02-15T07:40:45.111Z,1022.41
2023-02-15T07:47:08.098Z,1022.37
2023-02-15T07:53:27.989Z,1022.26
2023-02-15T07:59:51.027Z,1022.18
2023-02-15T08:06:10.981Z,1022.12
2023-02-15T08:12:33.972Z,1022.06
2023-02-15T08:18:54.050Z,1022.04
2023-02-15T08:25:17.031Z,1022
2023-02-15T08:31:37.102Z,1022
2023-02-15T08:38:00.116Z,1021.96
2023-02-15T08:44:19.976Z,1021.92
2023-02-15T08:50:43.072Z,1021.9
2023-02-15T08:57:03.038Z,1021.9
2023-02-15T09:03:26.023Z,1021.9
2023-02-15T09:09:46.032Z,1021.81
2023-02-15T09:16:09.026Z,1021.75
2023-02-15T09:38:36.013Z,1021.75
2023-02-15T09:44:59.024Z,1021.75
2023-02-15T09:51:19.003Z,1021.79
2023-02-15T09:57:42.041Z,1021.85
2023-02-15T10:04:02.017Z,1021.86
2023-02-15T10:10:25.056Z,1021.83
2023-02-15T10:16:45.083Z,1021.85
2023-02-15T10:23:08.000Z,1021.83
2023-02-15T10:29:27.994Z,1021.79
2023-02-15T10:35:52.920Z,1021.77
2023-02-15T10:42:10.988Z,1021.69
2023-02-15T10:48:34.012Z,1021.67
2023-02-15T10:54:54.041Z,1021.61
2023-02-15T11:01:17.025Z,1021.59
2023-02-15T11:07:36.995Z,1021.49
2023-02-15T11:14:00.030Z,1021.41
2023-02-15T11:20:20.024Z,1021.32
2023-02-15T11:26:43.038Z,1021.22
2023-02-15T11:33:03.076Z,1021.1
2023-02-15T11:39:25.979Z,1021
2023-02-15T11:45:46.007Z,1020.93
2023-02-15T11:52:09.050Z,1020.82
2023-02-15T11:58:29.002Z,1020.76
2023-02-15T12:04:51.981Z,1020.66
2023-02-15T12:11:12.006Z,1020.6
2023-02-15T12:17:35.004Z,1020.51
2023-02-15T12:23:55.178Z,1020.43
2023-02-15T12:30:19.094Z,1020.35
2023-02-15T12:36:38.990Z,1020.23
2023-02-15T12:43:02.029Z,1020.17
2023-02-15T12:49:22.049Z,1020.07
2023-02-15T12:55:46.046Z,1020
2023-02-15T13:02:05.034Z,1019.92
2023-02-15T13:08:28.027Z,1019.88
2023-02-15T13:14:48.002Z,1019.84
2023-02-15T13:21:11.011Z,1019.74
2023-02-15T13:27:31.026Z,1019.66
2023-02-15T13:33:54.006Z,1019.6
2023-02-15T13:40:14.000Z,1019.53
2023-02-15T13:46:37.028Z,1019.45
2023-02-15T13:52:56.981Z,1019.35
2023-02-15T13:59:19.994Z,1019.29
2023-02-15T14:05:40.091Z,1019.27
2023-02-15T14:12:02.990Z,1019.17
2023-02-15T14:18:23.000Z,1019.1
2023-02-15T14:24:46.023Z,1019.06
2023-02-15T14:31:06.482Z,1019.1
2023-02-15T14:37:28.993Z,1019.1
2023-02-15T14:43:49.042Z,1019.1
2023-02-15T15:07:32.009Z,1019.04
2023-02-15T15:13:55.042Z,1018.94
2023-02-15T15:20:15.041Z,1018.98
2023-02-15T15:26:38.457Z,1018.96
2023-02-15T15:32:57.991Z,1018.92
2023-02-15T15:39:20.980Z,1018.94
2023-02-15T15:45:41.044Z,1018.88
2023-02-15T15:52:04.029Z,1018.86
2023-02-15T15:58:23.979Z,1018.8
2023-02-15T16:04:47.028Z,1018.82
2023-02-15T16:11:06.982Z,1018.84
2023-02-15T16:17:29.993Z,1018.84
2023-02-15T16:23:50.047Z,1018.86
2023-02-15T16:30:13.021Z,1018.84
2023-02-15T16:36:32.983Z,1018.86
2023-02-15T16:42:56.008Z,1018.9
2023-02-15T16:49:15.999Z,1018.94
2023-02-15T16:55:38.996Z,1018.96
2023-02-15T17:01:59.037Z,1018.9
2023-02-15T17:08:22.016Z,1018.98
2023-02-15T17:14:41.987Z,1018.98
2023-02-15T17:21:05.085Z,1019
2023-02-15T17:27:24.985Z,1019.04
2023-02-15T17:33:47.991Z,1019.06
2023-02-15T17:40:08.051Z,1019.08
2023-02-15T17:46:30.978Z,1019.04
2023-02-15T17:52:50.984Z,1019.08
2023-02-15T17:59:14.068Z,1019.13
2023-02-15T18:05:33.990Z,1019.19
2023-02-15T18:11:56.983Z,1019.23
2023-02-15T18:18:17.018Z,1019.25
2023-02-15T18:24:39.979Z,1019.33
2023-02-15T18:31:00.062Z,1019.37
2023-02-15T18:37:22.998Z,1019.37
2023-02-15T18:43:42.996Z,1019.41
2023-02-15T18:50:05.999Z,1019.43
2023-02-15T18:56:26.068Z,1019.45
2023-02-15T19:02:49.006Z,1019.51
2023-02-15T19:09:09.007Z,1019.57
2023-02-15T19:15:32.071Z,1019.62
2023-02-15T19:21:52.022Z,1019.72
2023-02-15T19:28:15.009Z,1019.8
2023-02-15T19:34:35.049Z,1019.86
2023-02-15T19:40:58.028Z,1019.9
2023-02-15T19:47:17.981Z,1019.86
2023-02-15T19:53:41.013Z,1019.88
2023-02-15T20:00:09.495Z,1019.84
2023-02-15T20:22:32.046Z,1019.98
2023-02-15T20:28:54.986Z,1019.96
2023-02-15T20:35:14.979Z,1019.98
2023-02-15T20:41:38.051Z,1019.98
2023-02-15T20:47:58.026Z,1019.96
2023-02-15T20:54:20.997Z,1019.94
2023-02-15T21:00:41.082Z,1019.86
2023-02-15T21:07:04.000Z,1019.86
2023-02-15T21:13:23.981Z,1019.86
2023-02-15T21:19:47.051Z,1019.84
2023-02-15T21:26:07.025Z,1019.8
2023-02-15T21:32:30.133Z,1019.78
2023-02-15T21:38:50.038Z,1019.8
2023-02-15T21:45:12.994Z,1019.8
2023-02-15T21:51:33.034Z,1019.82
2023-02-15T21:57:56.054Z,1019.86
2023-02-15T22:04:16.074Z,1019.94
2023-02-15T22:10:38.993Z,1020.02
2023-02-15T22:16:59.154Z,1020
2023-02-15T22:23:22.239Z,1020.06
2023-02-15T22:29:41.996Z,1020.07
2023-02-15T22:36:05.003Z,1020.06
2023-02-15T22:42:25.034Z,1020.06
2023-02-15T22:48:47.976Z,1020.04
2023-02-15T22:55:08.003Z,1020.02
2023-02-15T23:20:42.003Z,1019.96
2023-02-15T23:27:01.967Z,1019.92
2023-02-15T23:33:25.019Z,1019.92
2023-02-15T23:39:45.029Z,1020
2023-02-15T23:46:08.127Z,1019.96
2023-02-15T23:52:27.971Z,1020.02
2023-02-15T23:58:51.084Z,1020
